Time;durP1;ratioP1;P1;durP2;ratioP2;P2;SDS_P1;SDS_P2;PMS_P1;PMS_P2;Temp;Humidity;BMP_temperature;BMP_pressure;BME280_temperature;BME280_humidity;BME280_pressure;Samples;Min_cycle;Max_cycle;Signal;HPM_P1;HPM_P2
2021/07/29 00:00:47;;;;;;;1999.90;999.90;;;;;;;16.81;46.51;100616.16;5022704;27;100651;-75
2021/07/29 00:03:15;;;;;;;1999.90;999.90;;;;;;;16.73;46.25;100607.22;5040839;27;97785;-75
2021/07/29 00:05:46;;;;;;;1999.90;999.90;;;;;;;16.68;46.71;100609.03;5022649;27;97268;-76
2021/07/29 00:08:14;;;;;;;1999.90;999.90;;;;;;;16.63;46.83;100611.78;5040528;27;99215;-75
2021/07/29 00:10:42;;;;;;;1999.90;999.90;;;;;;;16.57;46.84;100597.47;5040509;27;99496;-76
2021/07/29 00:13:10;;;;;;;1999.90;999.90;;;;;;;16.54;47.15;100602.88;5039534;27;96875;-75
2021/07/29 00:15:38;;;;;;;1999.90;999.90;;;;;;;16.51;47.07;100594.81;5040845;27;97266;-76
2021/07/29 00:20:52;;;;;;;1999.90;999.90;;;;;;;16.49;47.14;100592.13;5022817;27;97885;-75
2021/07/29 00:23:20;;;;;;;1999.90;999.90;;;;;;;16.49;47.08;100594.81;5027655;27;97565;-75
2021/07/29 00:25:48;;;;;;;1999.90;999.90;;;;;;;16.48;47.25;100592.16;5040342;27;97855;-76
2021/07/29 00:28:16;;;;;;;1999.90;999.90;;;;;;;16.46;47.17;100592.16;5037404;27;99399;-75
2021/07/29 00:30:43;;;;;;;1999.90;999.90;;;;;;;16.44;46.88;100595.75;5042297;27;97931;-76
2021/07/29 00:33:11;;;;;;;1999.90;999.90;;;;;;;16.39;46.95;100593.09;5041017;27;97931;-76
2021/07/29 00:35:39;;;;;;;1999.90;999.90;;;;;;;16.37;47.33;100588.63;5040827;27;96973;-76
2021/07/29 00:38:08;;;;;;;1999.90;999.90;;;;;;;16.34;47.49;100588.66;5040865;27;97785;-76
2021/07/29 00:40:36;;;;;;;1999.90;999.90;;;;;;;16.31;47.29;100591.34;5039570;27;98770;-75
2021/07/29 00:43:04;;;;;;;1999.90;999.90;;;;;;;16.24;47.23;100592.28;5040341;27;97324;-75
2021/07/29 00:45:32;;;;;;;1999.90;999.90;;;;;;;16.22;47.67;100580.66;5041082;27;97440;-74
2021/07/29 00:47:59;;;;;;;1999.90;999.90;;;;;;;16.21;47.32;100589.63;5040471;27;97481;-76
2021/07/29 00:50:36;;;;;;;1999.90;999.90;;;;;;;16.18;47.30;100570.84;5039625;27;98166;-76
2021/07/29 00:53:05;;;;;;;1999.90;999.90;;;;;;;16.12;47.13;100582.50;5041213;27;97153;-75
2021/07/29 00:55:34;;;;;;;1999.90;999.90;;;;;;;16.08;47.47;100587.00;5040417;27;97256;-75
2021/07/29 00:58:02;;;;;;;1999.90;999.90;;;;;;;16.05;47.40;100584.31;5041654;27;97903;-74
2021/07/29 01:00:30;;;;;;;1999.90;999.90;;;;;;;16.02;47.67;100576.28;5038979;27;100992;-74
2021/07/29 01:02:57;;;;;;;1999.90;999.90;;;;;;;16.02;47.51;100580.75;5056450;27;97623;-75
2021/07/29 01:05:25;;;;;;;1999.90;999.90;;;;;;;15.99;47.28;100578.97;5037941;27;98235;-76
2021/07/29 01:07:53;;;;;;;1999.90;999.90;;;;;;;15.96;47.56;100578.03;5040895;27;97641;-76
2021/07/29 01:10:21;;;;;;;1999.90;999.90;;;;;;;15.92;47.72;100571.81;5040869;27;97898;-75
2021/07/29 01:12:51;;;;;;;1999.90;999.90;;;;;;;15.92;47.54;100577.16;5039149;27;97308;-76
2021/07/29 01:15:18;;;;;;;1999.90;999.90;;;;;;;15.89;47.38;100576.28;5039904;27;97838;-75
2021/07/29 01:17:46;;;;;;;1999.90;999.90;;;;;;;15.87;47.57;100570.94;5041019;27;97516;-76
2021/07/29 01:20:20;;;;;;;1999.90;999.90;;;;;;;15.86;47.50;100568.25;5039202;27;97771;-75
2021/07/29 01:22:48;;;;;;;1999.90;999.90;;;;;;;15.84;47.44;100559.31;5041709;27;97122;-75
2021/07/29 01:25:16;;;;;;;1999.90;999.90;;;;;;;15.84;47.53;100565.59;5040327;27;97043;-76
2021/07/29 01:27:43;;;;;;;1999.90;999.90;;;;;;;15.82;47.36;100555.75;5016903;27;98479;-76
2021/07/29 01:30:12;;;;;;;1999.90;999.90;;;;;;;15.78;47.81;100557.56;5038706;27;100583;-75
2021/07/29 01:32:41;;;;;;;1999.90;999.90;;;;;;;15.76;47.54;100561.13;5041702;27;96939;-76
2021/07/29 01:35:09;;;;;;;1999.90;999.90;;;;;;;15.71;47.80;100555.78;5022207;27;98061;-75
2021/07/29 01:37:40;;;;;;;1999.90;999.90;;;;;;;15.68;48.00;100561.19;5037729;27;99601;-74
2021/07/29 01:40:09;;;;;;;1999.90;999.90;;;;;;;15.65;48.03;100563.84;5038478;27;97895;-75
2021/07/29 01:42:37;;;;;;;1999.90;999.90;;;;;;;15.63;47.79;100560.28;5040553;27;96858;-75
2021/07/29 01:45:06;;;;;;;1999.90;999.90;;;;;;;15.63;47.88;100559.41;5039103;27;97731;-75
2021/07/29 01:47:34;;;;;;;1999.90;999.90;;;;;;;15.62;47.88;100562.97;5038958;27;99172;-76
2021/07/29 01:50:02;;;;;;;1999.90;999.90;;;;;;;15.59;47.63;100573.72;5022352;27;100580;-76
2021/07/29 01:52:30;;;;;;;1999.90;999.90;;;;;;;15.56;47.57;100562.97;5038732;27;97211;-76
2021/07/29 01:54:59;;;;;;;1999.90;999.90;;;;;;;15.52;47.75;100566.59;5038565;27;96838;-75
2021/07/29 01:57:27;;;;;;;1999.90;999.90;;;;;;;15.48;47.69;100560.34;5020765;27;100808;-75
2021/07/29 01:59:56;;;;;;;1999.90;999.90;;;;;;;15.43;47.91;100570.16;5040420;27;96927;-75
2021/07/29 02:02:23;;;;;;;1999.90;999.90;;;;;;;15.38;47.68;100558.56;5019817;27;97562;-74
2021/07/29 02:04:51;;;;;;;1999.90;999.90;;;;;;;15.33;47.66;100554.09;5038432;27;97655;-76
2021/07/29 02:07:19;;;;;;;1999.90;999.90;;;;;;;15.28;47.83;100556.78;5037098;27;99123;-76
2021/07/29 02:09:47;;;;;;;1999.90;999.90;;;;;;;15.28;48.12;100561.25;5039445;27;98733;-76
2021/07/29 02:12:16;;;;;;;1999.90;999.90;;;;;;;15.23;48.11;100558.56;5037527;27;96960;-75
2021/07/29 02:14:44;;;;;;;1999.90;999.90;;;;;;;15.20;48.06;100561.25;5038246;27;97708;-75
2021/07/29 02:17:11;;;;;;;1999.90;999.90;;;;;;;15.16;47.76;100562.13;5037810;27;99417;-76
2021/07/29 02:19:39;;;;;;;1999.90;999.90;;;;;;;15.16;47.79;100562.13;5039814;27;97659;-75
2021/07/29 02:22:07;;;;;;;1999.90;999.90;;;;;;;15.15;47.79;100563.06;5039259;27;97276;-76
2021/07/29 02:24:35;;;;;;;1999.90;999.90;;;;;;;15.14;47.75;100567.50;5021238;27;96896;-74
2021/07/29 02:27:03;;;;;;;1999.90;999.90;;;;;;;15.12;48.10;100571.06;5038822;27;97890;-76
2021/07/29 02:29:32;;;;;;;1999.90;999.90;;;;;;;15.11;47.77;100563.94;5038681;27;97587;-75
2021/07/29 02:32:00;;;;;;;1999.90;999.90;;;;;;;15.06;48.02;100561.25;5039207;27;98210;-74
2021/07/29 02:34:28;;;;;;;1999.90;999.90;;;;;;;15.05;47.83;100570.19;5039049;27;97411;-75
2021/07/29 02:36:55;;;;;;;1999.90;999.90;;;;;;;15.04;48.10;100571.09;5036866;27;99613;-76
2021/07/29 02:39:23;;;;;;;1999.90;999.90;;;;;;;15.06;47.91;100571.09;5038857;27;97580;-76
2021/07/29 02:41:51;;;;;;;1999.90;999.90;;;;;;;15.07;48.15;100567.50;5037844;27;97233;-76
2021/07/29 02:44:19;;;;;;;1999.90;999.90;;;;;;;15.08;47.91;100569.31;5039259;27;97157;-74
2021/07/29 02:46:48;;;;;;;1999.90;999.90;;;;;;;15.08;47.60;100563.94;5037824;27;98469;-75
2021/07/29 02:49:16;;;;;;;1999.90;999.90;;;;;;;15.09;47.87;100566.63;5038177;27;97625;-75
2021/07/29 02:51:44;;;;;;;1999.90;999.90;;;;;;;15.09;47.56;100565.72;5038571;27;97393;-76
2021/07/29 02:54:11;;;;;;;1999.90;999.90;;;;;;;15.09;47.75;100569.31;5021473;27;96755;-75
2021/07/29 02:56:39;;;;;;;1999.90;999.90;;;;;;;15.10;47.73;100564.84;5037496;27;99566;-76
2021/07/29 02:59:07;;;;;;;1999.90;999.90;;;;;;;15.08;47.73;100572.00;5036493;27;98831;-75
2021/07/29 03:01:34;;;;;;;1999.90;999.90;;;;;;;15.06;47.49;100571.09;5020851;27;97103;-74
2021/07/29 03:04:04;;;;;;;1999.90;999.90;;;;;;;15.05;47.77;100574.66;5037750;27;97698;-76
2021/07/29 03:06:32;;;;;;;1999.90;999.90;;;;;;;15.03;47.50;100577.34;5036913;27;99424;-75
2021/07/29 03:09:00;;;;;;;1999.90;999.90;;;;;;;15.00;47.36;100584.50;5037861;27;99914;-76
2021/07/29 03:11:28;;;;;;;1999.90;999.90;;;;;;;14.93;47.94;100580.03;5038330;27;96886;-76
2021/07/29 03:13:56;;;;;;;1999.90;999.90;;;;;;;14.91;48.26;100581.81;5039799;27;96861;-75
2021/07/29 03:16:24;;;;;;;1999.90;999.90;;;;;;;14.91;47.94;100587.16;5037865;27;99797;-75
2021/07/29 03:18:52;;;;;;;1999.90;999.90;;;;;;;14.90;47.88;100582.72;5038015;27;96841;-76
2021/07/29 03:21:21;;;;;;;1999.90;999.90;;;;;;;14.88;47.72;100581.81;5039194;27;96817;-76
2021/07/29 03:23:48;;;;;;;1999.90;999.90;;;;;;;14.84;48.19;100585.38;5039468;27;96935;-76
2021/07/29 03:26:16;;;;;;;1999.90;999.90;;;;;;;14.80;47.65;100576.44;5036546;27;100848;-76
2021/07/29 03:28:44;;;;;;;1999.90;999.90;;;;;;;14.77;47.74;100575.56;5021955;27;99541;-75
2021/07/29 03:31:11;;;;;;;1999.90;999.90;;;;;;;14.75;47.79;100586.28;5035537;27;97726;-76
2021/07/29 03:33:39;;;;;;;1999.90;999.90;;;;;;;14.74;47.79;100583.56;5041562;27;97318;-76
2021/07/29 03:36:07;;;;;;;1999.90;999.90;;;;;;;14.71;47.79;100591.63;5040934;27;99461;-76
2021/07/29 03:38:36;;;;;;;1999.90;999.90;;;;;;;14.70;47.73;100592.53;5040034;27;100745;-76
2021/07/29 03:41:09;;;;;;;1999.90;999.90;;;;;;;14.68;47.77;100580.91;5042560;27;97824;-75
2021/07/29 03:43:36;;;;;;;1999.90;999.90;;;;;;;14.66;47.66;100585.38;5039956;27;97153;-75
2021/07/29 03:46:04;;;;;;;1999.90;999.90;;;;;;;14.61;47.58;100585.34;5040067;27;97948;-75
2021/07/29 03:48:32;;;;;;;1999.90;999.90;;;;;;;14.58;47.57;100597.84;5040505;27;97612;-75
2021/07/29 03:51:00;;;;;;;1999.90;999.90;;;;;;;14.55;47.79;100592.44;5041645;27;97218;-76
2021/07/29 03:53:28;;;;;;;1999.90;999.90;;;;;;;14.51;47.97;100583.53;5042370;27;97237;-75
2021/07/29 03:55:57;;;;;;;1999.90;999.90;;;;;;;14.51;48.05;100583.53;5041593;27;98572;-76
2021/07/29 03:58:25;;;;;;;1999.90;999.90;;;;;;;14.51;48.12;100586.19;5035760;27;99817;-75
2021/07/29 04:00:56;;;;;;;1999.90;999.90;;;;;;;14.48;48.20;100593.34;5038909;27;98195;-75
2021/07/29 04:03:24;;;;;;;1999.90;999.90;;;;;;;14.48;48.17;100579.94;5020384;27;98931;-75
2021/07/29 04:05:52;;;;;;;1999.90;999.90;;;;;;;14.48;48.16;100574.59;5037044;27;98034;-76
2021/07/29 04:08:19;;;;;;;1999.90;999.90;;;;;;;14.53;47.90;100580.84;5038563;27;98996;-75
2021/07/29 04:10:47;;;;;;;1999.90;999.90;;;;;;;14.54;47.75;100580.84;5039632;27;97771;-75
2021/07/29 04:13:16;;;;;;;1999.90;999.90;;;;;;;14.52;48.26;100581.72;5040464;27;97291;-77
2021/07/29 04:15:44;;;;;;;1999.90;999.90;;;;;;;14.53;48.04;100572.81;5013822;27;100380;-75
2021/07/29 04:18:12;;;;;;;1999.90;999.90;;;;;;;14.56;48.00;100570.16;5040090;27;99199;-75
2021/07/29 04:20:42;;;;;;;1999.90;999.90;;;;;;;14.59;47.61;100572.88;5041842;27;97324;-76
2021/07/29 04:23:12;;;;;;;1999.90;999.90;;;;;;;14.58;47.74;100561.25;5040305;27;97960;-76
2021/07/29 04:25:40;;;;;;;1999.90;999.90;;;;;;;14.58;47.47;100561.25;5015248;27;100343;-75
2021/07/29 04:28:08;;;;;;;1999.90;999.90;;;;;;;14.61;47.51;100560.38;5039926;27;98039;-74
2021/07/29 04:30:37;;;;;;;1999.90;999.90;;;;;;;14.63;47.71;100564.81;5036408;27;96890;-76
2021/07/29 04:33:07;;;;;;;1999.90;999.90;;;;;;;14.63;47.26;100559.47;5023492;27;97532;-75
2021/07/29 04:35:35;;;;;;;1999.90;999.90;;;;;;;14.62;47.33;100567.50;5040261;27;99285;-75
2021/07/29 04:38:03;;;;;;;1999.90;999.90;;;;;;;14.59;47.41;100563.03;5039673;27;99995;-76
2021/07/29 04:40:31;;;;;;;1999.90;999.90;;;;;;;14.59;47.22;100568.38;5015291;27;97026;-75
2021/07/29 04:42:59;;;;;;;1999.90;999.90;;;;;;;14.56;47.03;100572.84;5036944;27;97841;-75
2021/07/29 04:45:27;;;;;;;1999.90;999.90;;;;;;;14.52;47.27;100571.91;5039934;27;98755;-76
2021/07/29 04:47:56;;;;;;;1999.90;999.90;;;;;;;14.52;46.98;100571.91;5022025;27;100329;-74
2021/07/29 04:50:24;;;;;;;1999.90;999.90;;;;;;;14.54;47.03;100585.28;5039330;27;97684;-75
2021/07/29 04:52:53;;;;;;;1999.90;999.90;;;;;;;14.53;46.77;100573.72;5041727;27;97709;-75
2021/07/29 04:55:21;;;;;;;1999.90;999.90;;;;;;;14.54;46.60;100575.47;5035883;27;100629;-76
2021/07/29 04:57:49;;;;;;;1999.90;999.90;;;;;;;14.56;46.74;100576.41;5041306;27;98153;-76
2021/07/29 05:00:17;;;;;;;1999.90;999.90;;;;;;;14.59;46.38;100579.09;5023454;27;97971;-76
2021/07/29 05:02:44;;;;;;;1999.90;999.90;;;;;;;14.60;46.30;100580.00;5041185;27;98174;-76
2021/07/29 05:05:14;;;;;;;1999.90;999.90;;;;;;;14.61;46.55;100584.47;5040549;27;97969;-76
2021/07/29 05:07:41;;;;;;;1999.90;999.90;;;;;;;14.61;46.21;100587.16;5038810;27;101202;-74
2021/07/29 05:10:10;;;;;;;1999.90;999.90;;;;;;;14.61;46.12;100592.50;5040194;27;96787;-75
2021/07/29 05:12:38;;;;;;;1999.90;999.90;;;;;;;14.61;46.17;100585.34;5039392;27;97500;-76
2021/07/29 05:15:07;;;;;;;1999.90;999.90;;;;;;;14.60;46.45;100596.06;5040863;27;97910;-76
2021/07/29 05:17:34;;;;;;;1999.90;999.90;;;;;;;14.59;46.27;100594.28;5038940;27;99976;-75
2021/07/29 05:20:02;;;;;;;1999.90;999.90;;;;;;;14.60;46.10;100596.97;5039163;27;97556;-76
2021/07/29 05:22:31;;;;;;;1999.90;999.90;;;;;;;14.62;46.23;100594.28;5041136;27;97003;-75
2021/07/29 05:24:59;;;;;;;1999.90;999.90;;;;;;;14.61;46.37;100596.06;5040240;27;98030;-75
2021/07/29 05:27:27;;;;;;;1999.90;999.90;;;;;;;14.63;46.45;100590.69;5040235;27;97835;-76
2021/07/29 05:29:55;;;;;;;1999.90;999.90;;;;;;;14.64;46.29;100577.34;5039521;27;97814;-76
2021/07/29 05:32:23;;;;;;;1999.90;999.90;;;;;;;14.66;46.49;100574.66;5040910;27;97401;-75
2021/07/29 05:34:50;;;;;;;1999.90;999.90;;;;;;;14.69;46.19;100580.00;5019355;27;99416;-76
2021/07/29 05:37:18;;;;;;;1999.90;999.90;;;;;;;14.73;46.04;100581.81;5037890;27;97633;-75
2021/07/29 05:39:47;;;;;;;1999.90;999.90;;;;;;;14.74;46.30;100576.44;5039214;27;96839;-76
2021/07/29 05:42:20;;;;;;;1999.90;999.90;;;;;;;14.76;46.37;100576.44;5022033;27;97438;-75
2021/07/29 05:44:48;;;;;;;1999.90;999.90;;;;;;;14.80;46.01;100579.13;5037759;27;100492;-77
2021/07/29 05:47:16;;;;;;;1999.90;999.90;;;;;;;14.85;45.75;100577.34;5038762;27;97895;-75
2021/07/29 05:49:43;;;;;;;1999.90;999.90;;;;;;;14.88;45.73;100585.38;5039397;27;98281;-76
2021/07/29 05:52:11;;;;;;;1999.90;999.90;;;;;;;14.91;45.86;100581.81;5039330;27;97686;-76
2021/07/29 05:54:39;;;;;;;1999.90;999.90;;;;;;;14.96;45.64;100585.38;5037970;27;100797;-75
2021/07/29 05:57:08;;;;;;;1999.90;999.90;;;;;;;15.01;45.58;100583.59;5040008;27;97798;-74
2021/07/29 05:59:36;;;;;;;1999.90;999.90;;;;;;;15.05;45.30;100585.38;5022057;27;98051;-77
2021/07/29 06:02:04;;;;;;;1999.90;999.90;;;;;;;15.09;45.20;100588.06;5038718;27;97341;-76
2021/07/29 06:04:32;;;;;;;1999.90;999.90;;;;;;;15.16;45.32;100585.41;5040323;27;98949;-75
2021/07/29 06:07:00;;;;;;;1999.90;999.90;;;;;;;15.20;45.38;100588.06;5038177;27;99690;-75
2021/07/29 06:09:28;;;;;;;1999.90;999.90;;;;;;;15.23;44.96;100590.72;5041879;27;98039;-76
2021/07/29 06:11:57;;;;;;;1999.90;999.90;;;;;;;15.29;45.20;100598.81;5042231;27;96816;-76
2021/07/29 06:14:26;;;;;;;1999.90;999.90;;;;;;;15.35;45.11;100595.22;5038503;27;99783;-74
2021/07/29 06:16:54;;;;;;;1999.90;999.90;;;;;;;15.42;44.86;100591.63;5039699;27;98646;-75
2021/07/29 06:19:31;;;;;;;1999.90;999.90;;;;;;;15.42;44.85;100592.53;5038101;27;97227;-77
2021/07/29 06:21:59;;;;;;;1999.90;999.90;;;;;;;15.44;44.75;100585.38;5039183;27;96918;-76
2021/07/29 06:24:28;;;;;;;1999.90;999.90;;;;;;;15.49;44.62;100594.31;5035690;27;101185;-76
2021/07/29 06:26:58;;;;;;;1999.90;999.90;;;;;;;15.63;43.88;100596.97;5038258;27;99396;-75
2021/07/29 06:29:27;;;;;;;1999.90;999.90;;;;;;;15.69;43.92;100586.19;5040537;27;97684;-76
2021/07/29 06:31:55;;;;;;;1999.90;999.90;;;;;;;15.74;43.55;100595.16;5038353;27;97756;-77
2021/07/29 06:34:23;;;;;;;1999.90;999.90;;;;;;;15.85;43.07;100593.28;5037416;27;97789;-75
2021/07/29 06:36:51;;;;;;;1999.90;999.90;;;;;;;15.86;43.20;100590.63;5020835;27;100766;-74
2021/07/29 06:39:18;;;;;;;1999.90;999.90;;;;;;;15.88;43.07;100601.34;5038646;27;97780;-75
2021/07/29 06:41:46;;;;;;;1999.90;999.90;;;;;;;15.90;42.79;100591.50;5038053;27;97888;-77
2021/07/29 06:44:14;;;;;;;1999.90;999.90;;;;;;;15.90;42.60;100595.06;5039557;27;99062;-76
2021/07/29 06:46:43;;;;;;;1999.90;999.90;;;;;;;15.94;43.32;100591.47;5037193;27;99533;-76
2021/07/29 06:49:11;;;;;;;1999.90;999.90;;;;;;;15.98;42.87;100590.56;5039336;27;97842;-75
2021/07/29 06:51:39;;;;;;;1999.90;999.90;;;;;;;16.01;42.82;100595.94;5037384;27;97761;-74
2021/07/29 06:54:06;;;;;;;1999.90;999.90;;;;;;;16.05;42.50;100596.81;5021893;27;101126;-76
2021/07/29 06:56:34;;;;;;;1999.90;999.90;;;;;;;16.04;42.50;100601.34;5021091;27;99226;-74
2021/07/29 06:59:02;;;;;;;1999.90;999.90;;;;;;;15.99;42.87;100603.13;5038341;27;97283;-76
2021/07/29 07:01:30;;;;;;;1999.90;999.90;;;;;;;15.99;42.55;100608.47;5037553;27;98227;-76
2021/07/29 07:04:00;;;;;;;1999.90;999.90;;;;;;;15.99;42.88;100603.13;5039584;27;99457;-75
2021/07/29 07:06:27;;;;;;;1999.90;999.90;;;;;;;15.98;42.85;100601.31;5040976;27;100542;-76
2021/07/29 07:08:55;;;;;;;1999.90;999.90;;;;;;;16.00;42.83;100607.59;5043521;27;97185;-76
2021/07/29 07:11:23;;;;;;;1999.90;999.90;;;;;;;16.02;42.79;100626.38;5024449;27;98448;-76
2021/07/29 07:13:51;;;;;;;1999.90;999.90;;;;;;;15.99;42.41;100596.84;5038971;27;98176;-75
2021/07/29 07:16:19;;;;;;;1999.90;999.90;;;;;;;15.96;42.40;100600.41;5041728;27;98862;-75
2021/07/29 07:18:46;;;;;;;1999.90;999.90;;;;;;;15.94;42.47;100588.78;5041582;27;97524;-75
2021/07/29 07:21:16;;;;;;;1999.90;999.90;;;;;;;15.95;42.24;100600.44;5041510;27;97638;-75
2021/07/29 07:23:43;;;;;;;1999.90;999.90;;;;;;;15.94;42.17;100588.78;5037826;27;99307;-76
2021/07/29 07:26:15;;;;;;;1999.90;999.90;;;;;;;15.95;42.09;100582.53;5039716;27;99043;-75
2021/07/29 07:28:43;;;;;;;1999.90;999.90;;;;;;;15.95;41.72;100587.00;5041262;27;97829;-76
2021/07/29 07:31:11;;;;;;;1999.90;999.90;;;;;;;15.95;41.47;100598.66;5042404;27;97070;-76
2021/07/29 07:33:39;;;;;;;1999.90;999.90;;;;;;;15.95;41.52;100605.78;5040728;27;99999;-76
2021/07/29 07:36:07;;;;;;;1999.90;999.90;;;;;;;15.96;41.06;100608.47;5041077;27;97709;-76
2021/07/29 07:38:36;;;;;;;1999.90;999.90;;;;;;;15.98;40.93;100595.94;5041607;27;97291;-75
2021/07/29 07:41:05;;;;;;;1999.90;999.90;;;;;;;16.00;40.32;100591.50;5040560;27;98226;-74
2021/07/29 07:43:34;;;;;;;1999.90;999.90;;;;;;;16.04;40.08;100603.13;5022547;27;98726;-75
2021/07/29 07:46:03;;;;;;;1999.90;999.90;;;;;;;16.05;39.70;100589.69;5041570;27;100525;-77
2021/07/29 07:48:31;;;;;;;1999.90;999.90;;;;;;;16.13;39.68;100583.38;5041755;27;97404;-75
2021/07/29 07:50:59;;;;;;;1999.90;999.90;;;;;;;16.18;39.72;100585.13;5013405;27;97753;-75
2021/07/29 07:53:29;;;;;;;1999.90;999.90;;;;;;;16.24;39.65;100586.91;5041052;27;99325;-76
2021/07/29 07:56:02;;;;;;;1999.90;999.90;;;;;;;16.31;39.52;100608.34;5033921;27;99979;-76
2021/07/29 07:58:30;;;;;;;1999.90;999.90;;;;;;;16.37;39.12;100576.09;5023719;27;97040;-74
2021/07/29 08:00:57;;;;;;;1999.90;999.90;;;;;;;16.45;39.35;100598.41;5040351;27;96930;-75
2021/07/29 08:03:25;;;;;;;1999.90;999.90;;;;;;;16.53;39.06;100582.25;5039747;27;100102;-75
2021/07/29 08:05:53;;;;;;;1999.90;999.90;;;;;;;16.59;39.13;100569.69;5029553;27;102316;-75
2021/07/29 08:08:21;;;;;;;1999.90;999.90;;;;;;;16.65;39.10;100577.69;5030801;27;97160;-73
2021/07/29 08:10:51;;;;;;;1999.90;999.90;;;;;;;16.71;39.07;100568.72;5041906;27;96948;-75
2021/07/29 08:13:20;;;;;;;1999.90;999.90;;;;;;;16.73;38.58;100566.94;5040842;27;97748;-75
2021/07/29 08:15:48;;;;;;;1999.90;999.90;;;;;;;16.78;38.44;100570.50;5039814;27;97766;-74
2021/07/29 08:18:16;;;;;;;1999.90;999.90;;;;;;;16.83;38.31;100569.56;5040284;27;98210;-75
2021/07/29 08:20:44;;;;;;;1999.90;999.90;;;;;;;16.87;37.92;100570.41;5023309;27;97769;-75
2021/07/29 08:23:12;;;;;;;1999.90;999.90;;;;;;;16.88;37.87;100559.66;5039639;27;101534;-76
2021/07/29 08:25:39;;;;;;;1999.90;999.90;;;;;;;16.91;38.07;100573.06;5040455;27;99143;-75
2021/07/29 08:28:07;;;;;;;1999.90;999.90;;;;;;;16.92;37.17;100574.84;5038565;27;97510;-74
2021/07/29 08:30:36;;;;;;;1999.90;999.90;;;;;;;16.92;37.06;100564.09;5023318;27;97535;-74
2021/07/29 08:33:10;;;;;;;1999.90;999.90;;;;;;;16.93;36.81;100581.09;5041380;27;98965;-74
2021/07/29 08:35:38;;;;;;;1999.90;999.90;;;;;;;16.92;36.67;100580.22;5038893;27;97878;-75
2021/07/29 08:38:06;;;;;;;1999.90;999.90;;;;;;;16.90;36.79;100562.31;5040125;27;97733;-74
2021/07/29 08:40:34;;;;;;;1999.90;999.90;;;;;;;16.90;36.60;100579.34;5038992;27;98266;-75
2021/07/29 08:43:03;;;;;;;1999.90;999.90;;;;;;;16.93;36.79;100564.97;5035038;27;98125;-74
2021/07/29 08:45:31;;;;;;;1999.90;999.90;;;;;;;16.94;36.58;100578.41;5022689;27;99383;-74
2021/07/29 08:48:03;;;;;;;1999.90;999.90;;;;;;;16.98;36.94;100573.91;5042223;27;98102;-76
2021/07/29 08:50:30;;;;;;;1999.90;999.90;;;;;;;17.00;36.11;100574.75;5039288;27;97263;-75
2021/07/29 08:52:58;;;;;;;1999.90;999.90;;;;;;;16.97;35.36;100567.63;5041841;27;99046;-75
2021/07/29 08:55:26;;;;;;;1999.90;999.90;;;;;;;16.96;34.26;100583.78;5041215;27;97550;-75
2021/07/29 08:57:54;;;;;;;1999.90;999.90;;;;;;;16.95;33.46;100561.38;5041558;27;97055;-76
2021/07/29 09:00:22;;;;;;;1999.90;999.90;;;;;;;16.93;32.93;100568.56;5039431;27;97385;-74
2021/07/29 09:02:49;;;;;;;1999.90;999.90;;;;;;;16.95;32.87;100600.81;5025272;27;100291;-75
2021/07/29 09:05:21;;;;;;;1999.90;999.90;;;;;;;16.97;32.84;100589.16;5047359;27;100741;-75
2021/07/29 09:08:02;;;;;;;1999.90;999.90;;;;;;;17.00;32.59;100566.69;5043708;27;99466;-76
2021/07/29 09:10:31;;;;;;;1999.90;999.90;;;;;;;17.04;32.62;100585.50;5037293;27;97884;-74
2021/07/29 09:13:11;;;;;;;1999.90;999.90;;;;;;;17.06;32.71;100567.56;5039630;27;99827;-74
2021/07/29 09:15:39;;;;;;;1999.90;999.90;;;;;;;17.12;33.15;100596.19;5038846;27;97993;-74
2021/07/29 09:18:07;;;;;;;1999.90;999.90;;;;;;;17.14;32.98;100586.31;5040493;27;97179;-75
2021/07/29 09:20:37;;;;;;;1999.90;999.90;;;;;;;17.18;33.10;100573.72;5038009;27;97886;-75
2021/07/29 09:23:17;;;;;;;1999.90;999.90;;;;;;;17.20;32.97;100590.75;5022474;27;100257;-76
2021/07/29 09:25:46;;;;;;;1999.90;999.90;;;;;;;17.20;33.07;100594.31;5040001;27;99013;-75
2021/07/29 09:28:34;;;;;;;1999.90;999.90;;;;;;;17.21;33.01;100577.28;5038629;27;97867;-74
2021/07/29 09:31:15;;;;;;;1999.90;999.90;;;;;;;17.26;32.84;100585.28;5041101;27;97732;-75
2021/07/29 09:33:57;;;;;;;1999.90;999.90;;;;;;;17.28;32.69;100568.25;5040698;27;99129;-75
2021/07/29 09:36:28;;;;;;;1999.90;999.90;;;;;;;17.31;32.49;100567.34;5033145;27;97876;-75
2021/07/29 09:39:17;;;;;;;1999.90;999.90;;;;;;;17.33;32.34;100577.16;5040570;27;97294;-75
2021/07/29 09:41:45;;;;;;;1999.90;999.90;;;;;;;17.33;32.21;100584.34;5039911;27;97262;-75
2021/07/29 09:44:13;;;;;;;1999.90;999.90;;;;;;;17.32;32.07;100575.38;5021848;27;97798;-75
2021/07/29 09:46:41;;;;;;;1999.90;999.90;;;;;;;17.34;32.39;100572.69;5020752;27;97812;-76
2021/07/29 09:49:09;;;;;;;1999.90;999.90;;;;;;;17.37;32.35;100559.19;5039064;27;97528;-74
2021/07/29 09:51:40;;;;;;;1999.90;999.90;;;;;;;17.40;32.47;100567.28;5035705;27;97270;-75
2021/07/29 09:54:08;;;;;;;1999.90;999.90;;;;;;;17.45;32.39;100560.03;5037383;27;97780;-74
2021/07/29 09:56:36;;;;;;;1999.90;999.90;;;;;;;17.46;32.58;100557.34;5039077;27;98753;-73
2021/07/29 09:59:15;;;;;;;1999.90;999.90;;;;;;;17.51;32.49;100570.75;5022593;27;97437;-75
2021/07/29 10:01:43;;;;;;;1999.90;999.90;;;;;;;17.55;32.20;100569.78;5021610;27;97350;-74
2021/07/29 10:04:12;;;;;;;1999.90;999.90;;;;;;;17.57;31.94;100565.28;5039952;27;96882;-76
2021/07/29 10:06:41;;;;;;;1999.90;999.90;;;;;;;17.59;31.90;100563.47;5039820;27;98964;-74
2021/07/29 10:09:11;;;;;;;1999.90;999.90;;;;;;;17.63;31.63;100559.84;5037872;27;97698;-75
2021/07/29 10:11:43;;;;;;;1999.90;999.90;;;;;;;17.67;31.25;100572.38;5038819;27;97562;-75
2021/07/29 10:14:11;;;;;;;1999.90;999.90;;;;;;;17.69;30.92;100563.34;5036928;27;98048;-75
2021/07/29 10:16:46;;;;;;;1999.90;999.90;;;;;;;17.71;30.55;100558.84;5037805;27;97838;-74
2021/07/29 10:19:14;;;;;;;1999.90;999.90;;;;;;;17.70;30.74;100557.06;5021762;27;97428;-73
2021/07/29 10:21:44;;;;;;;1999.90;999.90;;;;;;;17.72;30.86;100571.41;5039289;27;97238;-76
2021/07/29 10:24:13;;;;;;;1999.90;999.90;;;;;;;17.72;30.88;100560.63;5040347;27;98999;-75
2021/07/29 10:27:12;;;;;;;1999.90;999.90;;;;;;;17.75;30.82;100555.19;5040249;27;98205;-75
2021/07/29 10:29:40;;;;;;;1999.90;999.90;;;;;;;17.77;30.70;100564.16;5038459;27;96979;-74
2021/07/29 10:32:10;;;;;;;1999.90;999.90;;;;;;;17.79;30.99;100572.19;5040369;27;96815;-75
2021/07/29 10:34:39;;;;;;;1999.90;999.90;;;;;;;17.82;30.78;100567.66;5021185;27;99892;-74
2021/07/29 10:37:08;;;;;;;1999.90;999.90;;;;;;;17.84;30.76;100568.56;5038777;27;99446;-75
2021/07/29 10:39:57;;;;;;;1999.90;999.90;;;;;;;17.89;30.63;100568.50;5038598;27;98186;-75
2021/07/29 10:42:26;;;;;;;1999.90;999.90;;;;;;;17.91;30.64;100582.84;5035107;27;97712;-74
2021/07/29 10:44:54;;;;;;;1999.90;999.90;;;;;;;17.90;30.60;100565.78;5037920;27;101398;-76
2021/07/29 10:47:38;;;;;;;1999.90;999.90;;;;;;;17.91;30.32;100559.47;5037440;27;99572;-75
2021/07/29 10:50:10;;;;;;;1999.90;999.90;;;;;;;17.93;30.44;100554.97;5038277;27;97181;-75
2021/07/29 10:52:40;;;;;;;1999.90;999.90;;;;;;;17.98;30.04;100554.94;5039788;27;97542;-75
2021/07/29 10:55:10;;;;;;;1999.90;999.90;;;;;;;18.02;30.56;100562.94;5037030;27;99895;-75
2021/07/29 10:57:39;;;;;;;1999.90;999.90;;;;;;;18.04;30.07;100563.84;5037266;27;99260;-75